Stolt Endurance — D5BW5 — position and weather

sailwx.info

Track history (hours):
 
Tides and Currents Weather Stations Pressure Air Temp Water Temp Dewpoint Dewpoint Depression Visibility Wind Speed Wind Dir Waves Ship Positions

Stolt Endurance

Last reported at 2018-Jun-18 06:55 UTC. Time now 2018-Jun-23 17:29 UTC.
Position S 32°21' E 032°40'.

Length 175 m; draft 10.8 m.

Type: Tanker. MMSI: 636015619.

Date/timePositionNaut miles runAvg speedWind from/ knotsBaromVisibWave heightAir tempDewpointWater temp
2018-Jun-18 06:55S 32°21' E 032°40'  
2018-Jun-15 20:10S 34°38' E 018°28'213.4
2018-Jun-15 20:00S 34°37' E 018°26'1112.9
2018-Jun-15 19:09S 34°33' E 018°14'912.7
2018-Jun-15 18:26S 34°27' E 018°06'612.8
2018-Jun-15 17:58S 34°22' E 018°02'612.8
2018-Jun-15 17:30S 34°17' E 017°57'712.7
2018-Jun-15 17:00S 34°12' E 017°53'612.8
2018-Jun-15 16:30S 34°07' E 017°48'712.4
2018-Jun-15 15:56S 34°01' E 017°43'1112.3
2018-Jun-15 15:03S 33°52' E 017°35'  
Track history (hours):
 
Tides and Currents Weather Stations Pressure Air Temp Water Temp Dewpoint Dewpoint Depression Visibility Wind Speed Wind Dir Waves Ship Positions

Stolt Endurance

Last reported at 2018-Jun-18 06:55 UTC. Time now 2018-Jun-23 17:29 UTC.
Position S 32°21' E 032°40'.

Length 175 m; draft 10.8 m.

Type: Tanker. MMSI: 636015619.

Date/timePositionNaut miles runAvg speedWind from/ knotsBaromVisibWave heightAir tempDewpointWater temp
2018-Jun-18 06:55S 32°21' E 032°40'  
2018-Jun-15 20:10S 34°38' E 018°28'213.4
2018-Jun-15 20:00S 34°37' E 018°26'1112.9
2018-Jun-15 19:09S 34°33' E 018°14'912.7
2018-Jun-15 18:26S 34°27' E 018°06'612.8
2018-Jun-15 17:58S 34°22' E 018°02'612.8
2018-Jun-15 17:30S 34°17' E 017°57'712.7
2018-Jun-15 17:00S 34°12' E 017°53'612.8
2018-Jun-15 16:30S 34°07' E 017°48'712.4
2018-Jun-15 15:56S 34°01' E 017°43'1112.3
2018-Jun-15 15:03S 33°52' E 017°35'  

Dump ship's entire track history